createdAt,value
2018-09-10T00:00:21.367Z,11.72
2018-09-10T00:01:21.362Z,11.75
2018-09-10T00:02:21.363Z,11.72
2018-09-10T00:03:21.386Z,11.65
2018-09-10T00:04:21.356Z,11.68
2018-09-10T00:05:21.363Z,11.70
2018-09-10T00:06:21.355Z,11.72
2018-09-10T00:07:21.353Z,11.75
2018-09-10T00:08:21.397Z,11.68
2018-09-10T00:09:21.351Z,11.74
2018-09-10T00:10:21.348Z,11.72
2018-09-10T00:11:21.349Z,11.71
2018-09-10T00:12:21.343Z,11.72
2018-09-10T00:13:21.368Z,11.75
2018-09-10T00:14:21.347Z,11.74
2018-09-10T00:15:21.341Z,11.89
2018-09-10T00:16:21.341Z,11.83
2018-09-10T00:17:21.340Z,11.87
2018-09-10T00:18:21.364Z,11.83
2018-09-10T00:19:21.337Z,11.89
2018-09-10T00:20:21.341Z,11.82
2018-09-10T00:21:21.331Z,11.71
2018-09-10T00:22:21.333Z,11.62
2018-09-10T00:23:21.354Z,11.52
2018-09-10T00:24:21.326Z,11.43
2018-09-10T00:25:21.322Z,11.43
2018-09-10T00:26:21.330Z,11.25
2018-09-10T00:27:21.331Z,11.24
2018-09-10T00:28:21.363Z,11.21
2018-09-10T00:29:21.318Z,11.17
2018-09-10T00:30:21.321Z,11.24
2018-09-10T00:31:21.313Z,11.20
2018-09-10T00:32:21.332Z,11.21
2018-09-10T00:33:21.343Z,11.11
2018-09-10T00:34:21.344Z,11.11
2018-09-10T00:35:21.307Z,10.98
2018-09-10T00:36:21.305Z,11.16
2018-09-10T00:37:21.308Z,11.14
2018-09-10T00:38:21.309Z,11.20
2018-09-10T00:39:21.353Z,11.14
2018-09-10T00:40:21.309Z,11.19
2018-09-10T00:41:21.300Z,11.25
2018-09-10T00:42:21.324Z,11.32
2018-09-10T00:43:21.322Z,11.34
2018-09-10T00:44:21.297Z,11.44
2018-09-10T00:45:21.293Z,11.44
2018-09-10T00:46:21.296Z,11.38
2018-09-10T00:47:21.284Z,11.44
2018-09-10T00:48:21.316Z,11.52
2018-09-10T00:49:21.284Z,11.46
2018-09-10T00:50:21.284Z,11.36
2018-09-10T00:51:21.282Z,11.41
2018-09-10T00:52:21.314Z,11.36
2018-09-10T00:53:21.278Z,11.35
2018-09-10T00:54:21.303Z,11.43
2018-09-10T00:55:21.278Z,11.38
2018-09-10T00:56:21.296Z,11.47
2018-09-10T00:57:21.271Z,11.29
2018-09-10T00:58:21.299Z,11.28
2018-09-10T00:59:21.267Z,11.27
2018-09-10T01:00:21.264Z,11.28
2018-09-10T01:01:21.261Z,11.24
2018-09-10T01:02:21.264Z,11.20
2018-09-10T01:03:21.294Z,11.25
2018-09-10T01:04:21.271Z,11.24
2018-09-10T01:05:21.288Z,11.27
2018-09-10T01:06:21.263Z,11.27
2018-09-10T01:07:21.253Z,11.28
2018-09-10T01:08:21.252Z,11.19
2018-09-10T01:09:21.281Z,11.29
2018-09-10T01:10:21.250Z,11.28
2018-09-10T01:11:21.245Z,11.35
2018-09-10T01:12:21.241Z,11.38
2018-09-10T01:13:21.288Z,11.54
2018-09-10T01:14:21.242Z,11.59
2018-09-10T01:15:21.242Z,11.54
2018-09-10T01:16:21.238Z,11.62
2018-09-10T01:17:21.237Z,11.72
2018-09-10T01:18:21.262Z,11.77
2018-09-10T01:19:21.235Z,11.72
2018-09-10T01:20:21.233Z,11.65
2018-09-10T01:21:21.231Z,11.68
2018-09-10T01:22:21.223Z,11.67
2018-09-10T01:23:21.255Z,11.68
2018-09-10T01:24:21.222Z,11.68
2018-09-10T01:25:21.223Z,11.72
2018-09-10T01:26:21.219Z,11.64
2018-09-10T01:27:21.214Z,11.68
2018-09-10T01:28:21.246Z,11.71
2018-09-10T01:29:21.216Z,11.78
2018-09-10T01:30:21.210Z,11.83
2018-09-10T01:31:21.213Z,11.82
2018-09-10T01:32:21.208Z,11.80
2018-09-10T01:33:21.236Z,11.71
2018-09-10T01:34:21.206Z,11.64
2018-09-10T01:35:21.207Z,11.57
2018-09-10T01:36:21.198Z,11.53
2018-09-10T01:37:21.229Z,11.41
2018-09-10T01:38:21.230Z,11.46
2018-09-10T01:39:21.198Z,11.43
2018-09-10T01:40:21.196Z,11.34
2018-09-10T01:41:21.193Z,11.36
2018-09-10T01:42:21.185Z,11.32
2018-09-10T01:43:21.215Z,11.49
2018-09-10T01:44:21.188Z,11.43
2018-09-10T01:45:21.186Z,11.49
2018-09-10T01:46:21.183Z,11.54
2018-09-10T01:47:21.194Z,11.56
2018-09-10T01:48:21.204Z,11.46
2018-09-10T01:49:21.178Z,11.46
2018-09-10T01:50:21.179Z,11.39
2018-09-10T01:51:21.175Z,11.38
2018-09-10T01:52:21.175Z,11.28
2018-09-10T01:53:21.200Z,11.31
2018-09-10T01:54:21.173Z,11.21
2018-09-10T01:55:21.164Z,11.20
2018-09-10T01:56:21.170Z,11.06
2018-09-10T01:57:21.161Z,10.99
2018-09-10T01:58:21.185Z,10.99
2018-09-10T01:59:21.160Z,10.84
2018-09-10T02:00:21.156Z,10.81
2018-09-10T02:01:21.158Z,10.83
2018-09-10T02:02:21.156Z,10.92
2018-09-10T02:03:21.180Z,10.89
2018-09-10T02:04:21.169Z,10.94
2018-09-10T02:05:21.149Z,10.83
2018-09-10T02:06:21.145Z,10.98
2018-09-10T02:07:21.141Z,11.02
2018-09-10T02:08:21.170Z,10.98
2018-09-10T02:09:21.144Z,10.99
2018-09-10T02:10:21.138Z,10.95
2018-09-10T02:11:21.133Z,10.84
2018-09-10T02:12:21.134Z,10.78
2018-09-10T02:13:21.163Z,10.71
2018-09-10T02:14:21.144Z,10.65
2018-09-10T02:15:21.126Z,10.68
2018-09-10T02:16:21.155Z,10.59
2018-09-10T02:17:21.130Z,10.65
2018-09-10T02:18:21.147Z,10.62
2018-09-10T02:19:21.146Z,10.73
2018-09-10T02:20:21.168Z,10.66
2018-09-10T02:21:21.111Z,10.62
2018-09-10T02:22:21.106Z,10.60
2018-09-10T02:23:21.131Z,10.70
2018-09-10T02:24:21.092Z,10.78
2018-09-10T02:25:21.092Z,10.60
2018-09-10T02:26:23.653Z,10.66
2018-09-10T02:27:21.133Z,10.68
2018-09-10T02:28:21.110Z,10.63
2018-09-10T02:29:21.128Z,10.62
2018-09-10T02:30:21.093Z,10.56
2018-09-10T02:31:21.078Z,10.52
2018-09-10T02:32:21.073Z,10.55
2018-09-10T02:33:21.114Z,10.46
2018-09-10T02:34:21.071Z,10.51
2018-09-10T02:35:21.067Z,10.43
2018-09-10T02:36:21.105Z,10.43
2018-09-10T02:37:21.069Z,10.36
2018-09-10T02:38:21.069Z,10.43
2018-09-10T02:39:21.094Z,10.36
2018-09-10T02:40:21.065Z,10.26
2018-09-10T02:41:21.059Z,10.32
2018-09-10T02:42:21.054Z,10.12
2018-09-10T02:43:21.062Z,10.19
2018-09-10T02:44:21.091Z,10.17
2018-09-10T02:45:21.075Z,10.19
2018-09-10T02:46:21.052Z,10.14
2018-09-10T02:47:21.044Z,10.18
2018-09-10T02:48:21.084Z,10.04
2018-09-10T02:49:21.043Z,10.03
2018-09-10T02:50:21.037Z,9.96
2018-09-10T02:51:21.045Z,9.86
2018-09-10T02:52:21.098Z,9.85
2018-09-10T02:53:21.035Z,9.78
2018-09-10T02:54:21.063Z,9.75
2018-09-10T02:55:21.031Z,9.66
2018-09-10T02:56:21.028Z,9.61
2018-09-10T02:57:21.030Z,9.53
2018-09-10T02:58:21.018Z,9.56
2018-09-10T02:59:21.075Z,9.49
2018-09-10T03:00:21.023Z,9.38
2018-09-10T03:01:21.013Z,9.38
2018-09-10T03:02:21.036Z,9.43
2018-09-10T03:03:21.047Z,9.32
2018-09-10T03:04:21.006Z,9.31
2018-09-10T03:05:21.001Z,9.39
2018-09-10T03:06:21.000Z,9.48
2018-09-10T03:07:21.006Z,9.49
2018-09-10T03:08:21.031Z,9.53
2018-09-10T03:09:21.001Z,9.57
2018-09-10T03:10:20.994Z,9.49
2018-09-10T03:11:20.991Z,9.57
2018-09-10T03:12:21.008Z,9.64
2018-09-10T03:13:21.023Z,9.53
2018-09-10T03:14:21.016Z,9.63
2018-09-10T03:15:20.980Z,9.66
2018-09-10T03:16:20.979Z,9.63
2018-09-10T03:17:20.976Z,9.64
2018-09-10T03:18:20.975Z,9.56
2018-09-10T03:19:21.025Z,9.53
2018-09-10T03:20:20.968Z,9.46
2018-09-10T03:21:20.968Z,9.52
2018-09-10T03:22:20.964Z,9.48
2018-09-10T03:23:21.020Z,9.46
2018-09-10T03:24:20.994Z,9.45
2018-09-10T03:25:20.956Z,9.53
2018-09-10T03:26:20.952Z,9.43
2018-09-10T03:27:20.946Z,9.49
2018-09-10T03:28:20.945Z,9.49
2018-09-10T03:29:20.997Z,9.49
2018-09-10T03:30:20.947Z,9.45
2018-09-10T03:31:20.961Z,9.48
2018-09-10T03:32:20.938Z,9.52
2018-09-10T03:33:20.936Z,9.45
2018-09-10T03:34:20.970Z,9.46
2018-09-10T03:35:20.929Z,9.49
2018-09-10T03:36:20.938Z,9.49
2018-09-10T03:37:20.926Z,9.48
2018-09-10T03:38:20.958Z,9.61
2018-09-10T03:39:20.921Z,9.56
2018-09-10T03:40:20.918Z,9.58
2018-09-10T03:41:20.915Z,9.63
2018-09-10T03:42:20.916Z,9.63
2018-09-10T03:43:20.959Z,9.57
2018-09-10T03:44:20.906Z,9.67
2018-09-10T03:45:20.921Z,9.66
2018-09-10T03:46:20.916Z,9.78
2018-09-10T03:47:20.990Z,9.82
2018-09-10T03:48:20.931Z,9.83
2018-09-10T03:49:21.211Z,9.86
2018-09-10T03:50:20.903Z,9.96
2018-09-10T03:51:20.887Z,9.96
2018-09-10T03:52:20.929Z,9.97
2018-09-10T03:53:20.889Z,9.89
2018-09-10T03:54:20.916Z,10.06
2018-09-10T03:55:20.880Z,9.96
2018-09-10T03:56:20.876Z,9.96
2018-09-10T03:57:20.925Z,10.01
2018-09-10T03:58:20.868Z,10.03
2018-09-10T03:59:20.873Z,10.00
2018-09-10T04:00:20.878Z,10.07
2018-09-10T04:01:20.863Z,9.99
2018-09-10T04:02:20.895Z,9.91
2018-09-10T04:03:20.854Z,10.09
2018-09-10T04:04:20.858Z,9.94
2018-09-10T04:05:20.888Z,10.09
2018-09-10T04:06:20.849Z,10.10
2018-09-10T04:07:20.877Z,10.15
2018-09-10T04:08:20.845Z,10.18
2018-09-10T04:09:20.841Z,10.15
2018-09-10T04:10:20.843Z,10.18
2018-09-10T04:11:20.841Z,10.32
2018-09-10T04:12:20.868Z,10.33
2018-09-10T04:13:20.834Z,10.34
2018-09-10T04:14:20.828Z,10.42
2018-09-10T04:15:20.827Z,10.42
2018-09-10T04:16:20.827Z,10.55
2018-09-10T04:17:20.936Z,10.51
2018-09-10T04:18:20.820Z,10.51
2018-09-10T04:19:20.824Z,10.52
2018-09-10T04:20:20.814Z,10.52
2018-09-10T04:21:20.811Z,10.59
2018-09-10T04:22:20.845Z,10.53
2018-09-10T04:23:20.808Z,10.66
2018-09-10T04:24:20.824Z,10.68
2018-09-10T04:25:20.850Z,10.86
2018-09-10T04:26:20.800Z,10.80
2018-09-10T04:27:20.843Z,10.89
2018-09-10T04:28:20.799Z,11.02
2018-09-10T04:29:20.792Z,11.03
2018-09-10T04:30:20.790Z,11.09
2018-09-10T04:31:20.826Z,11.06
2018-09-10T04:32:20.790Z,11.09
2018-09-10T04:33:20.780Z,11.27
2018-09-10T04:34:20.805Z,11.24
2018-09-10T04:35:20.781Z,11.20
2018-09-10T04:36:20.811Z,11.16
2018-09-10T04:37:20.773Z,11.31
2018-09-10T04:38:20.774Z,11.20
2018-09-10T04:39:20.773Z,11.27
2018-09-10T04:40:20.805Z,11.24
2018-09-10T04:41:20.788Z,11.29
2018-09-10T04:42:20.823Z,11.20
2018-09-10T04:43:20.762Z,11.28
2018-09-10T04:44:20.759Z,11.24
2018-09-10T04:45:20.795Z,11.25
2018-09-10T04:46:20.954Z,11.14
2018-09-10T04:47:20.754Z,11.11
2018-09-10T04:48:20.807Z,11.14
2018-09-10T04:49:20.755Z,11.17
2018-09-10T04:50:20.747Z,11.20
2018-09-10T04:51:20.764Z,11.11
2018-09-10T04:52:20.755Z,11.07
2018-09-10T04:53:20.775Z,11.03
2018-09-10T04:54:20.745Z,11.10
2018-09-10T04:55:20.732Z,11.09
2018-09-10T04:56:20.741Z,11.02
2018-09-10T04:57:20.764Z,10.95
2018-09-10T04:58:20.733Z,11.01
2018-09-10T04:59:20.764Z,10.94
2018-09-10T05:00:20.733Z,10.92
2018-09-10T05:01:20.740Z,10.84
2018-09-10T05:02:20.720Z,10.83
2018-09-10T05:03:20.757Z,10.77
2018-09-10T05:04:20.786Z,10.77
2018-09-10T05:05:20.732Z,10.76
2018-09-10T05:06:20.796Z,10.77
2018-09-10T05:07:20.714Z,10.74
2018-09-10T05:08:20.761Z,10.74
2018-09-10T05:09:20.715Z,10.74
2018-09-10T05:10:20.705Z,10.68
2018-09-10T05:11:20.703Z,10.73
2018-09-10T05:12:20.699Z,10.84
2018-09-10T05:13:20.740Z,10.88
2018-09-10T05:14:20.702Z,10.94
2018-09-10T05:15:20.697Z,10.98
2018-09-10T05:16:20.699Z,10.99
2018-09-10T05:17:21.642Z,10.89
2018-09-10T05:18:20.726Z,10.98
2018-09-10T05:19:20.691Z,11.03
2018-09-10T05:20:20.685Z,11.06
2018-09-10T05:21:20.693Z,11.01
2018-09-10T05:22:20.706Z,11.21
2018-09-10T05:23:20.719Z,11.11
2018-09-10T05:24:20.679Z,11.17
2018-09-10T05:25:20.683Z,11.14
2018-09-10T05:26:20.675Z,11.03
2018-09-10T05:27:20.676Z,11.01
2018-09-10T05:28:20.720Z,11.02
2018-09-10T05:29:20.673Z,11.06
2018-09-10T05:30:20.673Z,11.03
2018-09-10T05:31:20.672Z,10.96
2018-09-10T05:32:20.685Z,11.09
2018-09-10T05:33:20.701Z,11.13
2018-09-10T05:34:20.664Z,11.09
2018-09-10T05:35:20.661Z,11.14
2018-09-10T05:36:20.661Z,11.28
2018-09-10T05:37:20.659Z,11.19
2018-09-10T05:38:20.699Z,11.25
2018-09-10T05:39:20.656Z,11.14
2018-09-10T05:40:20.661Z,11.11
2018-09-10T05:41:20.651Z,11.03
2018-09-10T05:42:20.657Z,11.02
2018-09-10T05:43:20.679Z,10.98
2018-09-10T05:44:20.646Z,11.03
2018-09-10T05:45:20.643Z,11.09
2018-09-10T05:46:21.278Z,11.02
2018-09-10T05:47:20.655Z,11.09
2018-09-10T05:48:20.675Z,11.02
2018-09-10T05:49:20.634Z,10.95
2018-09-10T05:50:20.635Z,11.02
2018-09-10T05:51:21.138Z,11.10
2018-09-10T05:52:20.633Z,11.02
2018-09-10T05:53:20.779Z,11.24
2018-09-10T05:54:20.630Z,11.16
2018-09-10T05:55:20.646Z,11.36
2018-09-10T05:56:20.643Z,11.52
2018-09-10T05:57:20.620Z,11.68
2018-09-10T05:58:20.659Z,11.82
2018-09-10T05:59:20.619Z,12.09
2018-09-10T06:00:20.613Z,12.64
2018-09-10T06:01:20.617Z,13.43
2018-09-10T06:02:20.612Z,14.01
2018-09-10T06:03:20.666Z,14.60
2018-09-10T06:04:20.606Z,15.12
2018-09-10T06:05:20.609Z,15.57
2018-09-10T06:06:20.624Z,15.82
2018-09-10T06:07:20.652Z,16.01
2018-09-10T06:08:20.606Z,16.33
2018-09-10T06:09:20.623Z,16.31
2018-09-10T06:10:20.623Z,16.48
2018-09-10T06:11:20.603Z,16.70
2018-09-10T06:12:20.638Z,16.71
2018-09-10T06:13:20.638Z,16.93
2018-09-10T06:14:20.600Z,17.36
2018-09-10T06:15:20.596Z,17.57
2018-09-10T06:16:20.598Z,18.12
2018-09-10T06:17:20.600Z,18.47
2018-09-10T06:18:20.632Z,18.52
2018-09-10T06:19:20.598Z,18.76
2018-09-10T06:20:20.615Z,18.84
2018-09-10T06:21:21.147Z,18.95
2018-09-10T06:22:20.601Z,19.20
2018-09-10T06:23:20.630Z,19.33
2018-09-10T06:24:20.598Z,19.38
2018-09-10T06:25:20.599Z,19.58
2018-09-10T06:26:20.601Z,19.80
2018-09-10T06:27:20.597Z,19.90
2018-09-10T06:28:20.640Z,19.91
2018-09-10T06:29:20.600Z,19.90
2018-09-10T06:30:20.659Z,20.31
2018-09-10T06:31:20.604Z,20.39
2018-09-10T06:32:20.608Z,20.49
2018-09-10T06:33:20.646Z,20.51
2018-09-10T06:34:20.655Z,20.90
2018-09-10T06:35:20.609Z,21.06
2018-09-10T06:36:20.605Z,21.13
2018-09-10T06:37:20.619Z,21.42
2018-09-10T06:38:20.648Z,21.11
2018-09-10T06:39:20.617Z,20.80
2018-09-10T06:40:20.618Z,21.04
2018-09-10T06:41:20.633Z,21.04
2018-09-10T06:42:20.659Z,21.29
2018-09-10T06:43:20.664Z,21.41
2018-09-10T06:44:20.636Z,21.95
2018-09-10T06:45:20.634Z,21.75
2018-09-10T06:46:20.637Z,22.02
2018-09-10T06:47:20.637Z,22.23
2018-09-10T06:48:20.699Z,22.49
2018-09-10T06:49:20.650Z,22.29
2018-09-10T06:50:20.653Z,22.44
2018-09-10T06:51:20.663Z,22.46
2018-09-10T06:52:20.657Z,22.46
2018-09-10T06:53:20.761Z,22.82
2018-09-10T06:54:20.662Z,22.77
2018-09-10T06:55:20.672Z,22.97
2018-09-10T06:56:20.668Z,22.94
2018-09-10T06:57:20.676Z,23.15
2018-09-10T06:58:20.723Z,23.01
2018-09-10T06:59:20.683Z,22.82
2018-09-10T07:00:20.702Z,22.50
2018-09-10T07:01:21.816Z,22.41
2018-09-10T07:02:20.696Z,22.47
2018-09-10T07:03:20.736Z,22.41
2018-09-10T07:04:20.708Z,22.22
2018-09-10T07:05:20.712Z,22.17
2018-09-10T07:06:20.725Z,22.23
2018-09-10T07:07:20.725Z,22.32
2018-09-10T07:08:20.764Z,22.47
2018-09-10T07:09:20.733Z,22.72
2018-09-10T07:10:20.740Z,22.87
2018-09-10T07:11:20.745Z,22.93
2018-09-10T07:12:20.749Z,23.26
2018-09-10T07:13:20.809Z,23.58
2018-09-10T07:14:20.758Z,23.72
2018-09-10T07:15:20.765Z,23.87
2018-09-10T07:16:20.797Z,24.16
2018-09-10T07:17:20.782Z,23.85
2018-09-10T07:18:20.837Z,23.67
2018-09-10T07:19:20.850Z,23.60
2018-09-10T07:20:20.797Z,23.68
2018-09-10T07:21:20.801Z,23.90
2018-09-10T07:22:20.812Z,23.71
2018-09-10T07:23:20.819Z,23.47
2018-09-10T07:24:20.862Z,23.05
2018-09-10T07:25:20.830Z,22.96
2018-09-10T07:26:20.839Z,22.89
2018-09-10T07:27:20.845Z,23.17
2018-09-10T07:28:20.855Z,23.07
2018-09-10T07:29:20.894Z,23.22
2018-09-10T07:30:20.873Z,22.90
2018-09-10T07:31:20.878Z,22.87
2018-09-10T07:32:20.887Z,23.26
2018-09-10T07:33:20.936Z,23.32
2018-09-10T07:34:20.926Z,22.94
2018-09-10T07:35:20.919Z,22.37
2018-09-10T07:36:20.920Z,22.14
2018-09-10T07:37:20.927Z,22.02
2018-09-10T07:38:20.979Z,22.62
2018-09-10T07:39:20.944Z,23.57
2018-09-10T07:40:20.952Z,23.49
2018-09-10T07:41:21.076Z,23.71
2018-09-10T07:42:20.981Z,24.07
2018-09-10T07:43:21.020Z,24.61
2018-09-10T07:44:21.076Z,24.98
2018-09-10T07:45:21.031Z,25.64
2018-09-10T07:46:21.013Z,26.02
2018-09-10T07:47:21.021Z,26.21
2018-09-10T07:48:21.075Z,26.37
2018-09-10T07:49:21.042Z,26.65
2018-09-10T07:50:21.082Z,27.02
2018-09-10T07:51:21.052Z,27.35
2018-09-10T07:52:21.094Z,27.17
2018-09-10T07:53:21.123Z,27.10
2018-09-10T07:54:21.174Z,26.86
2018-09-10T07:55:21.106Z,26.72
2018-09-10T07:56:21.135Z,26.17
2018-09-10T07:57:21.127Z,25.97
2018-09-10T07:58:21.139Z,25.84
2018-09-10T07:59:21.202Z,26.24
2018-09-10T08:00:21.154Z,26.05
2018-09-10T08:01:21.171Z,25.39
2018-09-10T08:02:21.183Z,24.41
2018-09-10T08:03:21.187Z,24.22
2018-09-10T08:04:21.237Z,24.00
2018-09-10T08:05:21.215Z,24.52
2018-09-10T08:06:21.230Z,24.91
2018-09-10T08:07:21.236Z,24.98
2018-09-10T08:08:21.299Z,25.64
2018-09-10T08:09:21.453Z,25.86
2018-09-10T08:10:21.292Z,25.94
2018-09-10T08:11:22.198Z,25.68
2018-09-10T08:12:21.294Z,25.09
2018-09-10T08:13:21.345Z,25.20
2018-09-10T08:14:21.363Z,25.35
2018-09-10T08:15:21.324Z,25.49
2018-09-10T08:16:21.339Z,26.05
2018-09-10T08:17:21.350Z,26.57
2018-09-10T08:18:21.419Z,26.80
2018-09-10T08:19:21.411Z,26.44
2018-09-10T08:20:21.417Z,26.62
2018-09-10T08:21:21.400Z,26.84
2018-09-10T08:22:21.415Z,27.10
2018-09-10T08:23:21.457Z,27.38
2018-09-10T08:24:21.588Z,27.84
2018-09-10T08:25:21.461Z,27.96
2018-09-10T08:26:21.454Z,27.95
2018-09-10T08:27:21.471Z,27.76
2018-09-10T08:28:21.518Z,27.76
2018-09-10T08:29:21.499Z,27.02
2018-09-10T08:30:21.534Z,27.10
2018-09-10T08:31:21.527Z,27.20
2018-09-10T08:32:21.559Z,27.26
2018-09-10T08:33:21.579Z,26.83
2018-09-10T08:34:21.560Z,26.98
2018-09-10T08:35:21.572Z,27.19
2018-09-10T08:36:21.586Z,27.26
2018-09-10T08:37:21.603Z,27.21
2018-09-10T08:38:21.645Z,27.17
2018-09-10T08:39:21.625Z,27.32
2018-09-10T08:40:21.659Z,27.31
2018-09-10T08:41:21.666Z,27.32
2018-09-10T08:42:21.662Z,27.10
2018-09-10T08:43:21.719Z,27.06
2018-09-10T08:44:21.686Z,27.14
2018-09-10T08:45:21.697Z,27.02
2018-09-10T08:46:21.710Z,26.84
2018-09-10T08:47:21.780Z,27.06
2018-09-10T08:48:21.816Z,27.21
2018-09-10T08:49:21.742Z,27.29
2018-09-10T08:50:21.758Z,27.58
2018-09-10T08:51:21.767Z,27.71
2018-09-10T08:52:21.815Z,27.94
2018-09-10T08:53:21.797Z,27.98
2018-09-10T08:54:21.998Z,27.82
2018-09-10T08:55:21.915Z,27.74
2018-09-10T08:56:21.940Z,27.71
2018-09-10T08:57:21.879Z,27.85
2018-09-10T08:58:21.884Z,27.59
2018-09-10T08:59:21.877Z,27.76
2018-09-10T09:00:21.893Z,27.98
2018-09-10T09:01:21.896Z,28.26
2018-09-10T09:02:22.370Z,28.50
2018-09-10T09:03:22.440Z,28.60
2018-09-10T09:04:23.100Z,28.97
2018-09-10T09:05:22.099Z,29.00
2018-09-10T09:06:24.692Z,29.13
2018-09-10T09:07:22.008Z,29.06
2018-09-10T09:08:22.945Z,29.07
2018-09-10T09:09:22.018Z,29.15
2018-09-10T09:10:22.010Z,29.08
2018-09-10T09:11:22.126Z,29.01
2018-09-10T09:12:22.074Z,28.90
2018-09-10T09:13:22.060Z,28.78
2018-09-10T09:14:22.070Z,28.23
2018-09-10T09:15:22.078Z,28.11
2018-09-10T09:16:22.088Z,28.03
2018-09-10T09:17:22.193Z,28.07
2018-09-10T09:18:22.119Z,28.13
2018-09-10T09:19:22.136Z,28.38
2018-09-10T09:20:22.164Z,28.41
2018-09-10T09:21:22.159Z,28.81
2018-09-10T09:22:22.210Z,29.08
2018-09-10T09:23:22.261Z,29.16
2018-09-10T09:24:22.219Z,29.23
2018-09-10T09:25:22.210Z,29.28
2018-09-10T09:26:22.226Z,29.28
2018-09-10T09:27:22.271Z,29.34
2018-09-10T09:28:22.250Z,29.33
2018-09-10T09:29:22.265Z,29.38
2018-09-10T09:30:22.369Z,29.19
2018-09-10T09:31:22.466Z,28.97
2018-09-10T09:32:22.343Z,29.07
2018-09-10T09:33:22.313Z,29.28
2018-09-10T09:34:22.333Z,29.86
2018-09-10T09:35:22.351Z,30.21
2018-09-10T09:36:22.429Z,30.49
2018-09-10T09:37:22.411Z,30.50
2018-09-10T09:38:22.387Z,30.30
2018-09-10T09:39:22.401Z,30.14
2018-09-10T09:40:22.423Z,30.27
2018-09-10T09:41:22.427Z,30.61
2018-09-10T09:42:22.483Z,30.52
2018-09-10T09:43:22.504Z,30.27
2018-09-10T09:44:22.478Z,30.07
2018-09-10T09:45:22.488Z,30.07
2018-09-10T09:46:22.528Z,30.19
2018-09-10T09:47:22.561Z,30.23
2018-09-10T09:48:24.623Z,30.30
2018-09-10T09:49:22.804Z,30.36
2018-09-10T09:50:23.323Z,30.30
2018-09-10T09:51:22.608Z,30.38
2018-09-10T09:52:22.632Z,30.52
2018-09-10T09:53:22.654Z,30.50
2018-09-10T09:54:24.600Z,30.47
2018-09-10T09:55:24.387Z,30.49
2018-09-10T09:56:22.654Z,30.49
2018-09-10T09:57:24.109Z,30.54
2018-09-10T09:58:23.513Z,30.47
2018-09-10T09:59:22.711Z,30.53
2018-09-10T10:00:22.722Z,30.67
2018-09-10T10:01:22.741Z,30.64
2018-09-10T10:02:22.786Z,30.50
2018-09-10T10:03:22.773Z,30.61
2018-09-10T10:04:22.799Z,30.50
2018-09-10T10:05:22.816Z,30.40
2018-09-10T10:06:23.747Z,30.12
2018-09-10T10:07:22.869Z,29.99
2018-09-10T10:08:22.844Z,30.03
2018-09-10T10:09:22.864Z,29.84
2018-09-10T10:10:23.731Z,29.74
2018-09-10T10:11:22.948Z,29.65
2018-09-10T10:12:23.117Z,29.40
2018-09-10T10:13:22.926Z,29.33
2018-09-10T10:14:22.937Z,29.25
2018-09-10T10:15:22.949Z,29.28
2018-09-10T10:16:23.782Z,29.49
2018-09-10T10:17:23.013Z,29.52
2018-09-10T10:18:22.998Z,29.38
2018-09-10T10:19:23.011Z,29.60
2018-09-10T10:20:23.026Z,29.56
2018-09-10T10:21:23.038Z,29.56
2018-09-10T10:22:23.087Z,29.50
2018-09-10T10:23:23.068Z,29.57
2018-09-10T10:24:23.083Z,29.70
2018-09-10T10:25:23.093Z,29.72
2018-09-10T10:26:23.107Z,29.86
2018-09-10T10:27:23.159Z,29.84
2018-09-10T10:28:23.173Z,29.74
2018-09-10T10:29:23.150Z,29.84
2018-09-10T10:30:23.176Z,30.11
2018-09-10T10:31:23.195Z,30.21
2018-09-10T10:32:23.189Z,30.52
2018-09-10T10:33:23.245Z,30.93
2018-09-10T10:34:23.224Z,31.08
2018-09-10T10:35:23.234Z,31.73
2018-09-10T10:36:23.446Z,32.21
2018-09-10T10:37:23.299Z,32.36
2018-09-10T10:38:23.298Z,32.32
2018-09-10T10:39:23.347Z,32.24
2018-09-10T10:40:23.312Z,32.20
2018-09-10T10:41:23.328Z,32.11
2018-09-10T10:42:23.407Z,32.00
2018-09-10T10:43:23.358Z,32.10
2018-09-10T10:44:23.419Z,32.20
2018-09-10T10:45:23.399Z,32.33
2018-09-10T10:46:23.413Z,32.40
2018-09-10T10:47:23.520Z,32.67
2018-09-10T10:48:23.454Z,32.81
2018-09-10T10:49:23.480Z,32.74
2018-09-10T10:50:23.492Z,33.04
2018-09-10T10:51:23.507Z,32.85
2018-09-10T10:52:23.565Z,32.89
2018-09-10T10:53:23.546Z,32.51
2018-09-10T10:54:23.601Z,32.33
2018-09-10T10:55:23.585Z,32.24
2018-09-10T10:56:23.605Z,32.13
2018-09-10T10:57:23.661Z,31.96
2018-09-10T10:58:23.678Z,31.99
2018-09-10T10:59:23.660Z,31.79
2018-09-10T11:00:23.675Z,31.70
2018-09-10T11:01:23.712Z,31.75
2018-09-10T11:02:25.427Z,31.79
2018-09-10T11:03:23.736Z,31.91
2018-09-10T11:04:23.756Z,31.84
2018-09-10T11:05:23.772Z,31.54
2018-09-10T11:06:23.794Z,31.77
2018-09-10T11:07:23.845Z,31.76
2018-09-10T11:08:23.833Z,31.62
2018-09-10T11:09:24.745Z,31.67
2018-09-10T11:10:23.864Z,31.72
2018-09-10T11:11:24.738Z,31.96
2018-09-10T11:12:24.305Z,31.70
2018-09-10T11:13:24.762Z,32.00
2018-09-10T11:14:25.156Z,32.37
2018-09-10T11:15:26.835Z,32.47
2018-09-10T11:16:23.976Z,32.42
2018-09-10T11:17:24.023Z,31.84
2018-09-10T11:18:24.009Z,32.03
2018-09-10T11:19:24.064Z,32.49
2018-09-10T11:20:24.070Z,32.17
2018-09-10T11:21:24.066Z,31.79
2018-09-10T11:22:24.177Z,31.70
2018-09-10T11:23:24.144Z,31.17
2018-09-10T11:24:24.180Z,31.20
2018-09-10T11:25:24.142Z,31.11
2018-09-10T11:26:24.154Z,31.05
2018-09-10T11:27:24.233Z,30.52
2018-09-10T11:28:24.194Z,30.37
2018-09-10T11:29:24.204Z,30.19
2018-09-10T11:30:24.260Z,29.86
2018-09-10T11:31:24.256Z,29.59
2018-09-10T11:32:24.253Z,29.47
2018-09-10T11:33:24.310Z,28.96
2018-09-10T11:34:24.285Z,28.85
2018-09-10T11:35:24.317Z,28.91
2018-09-10T11:36:24.319Z,29.04
2018-09-10T11:37:24.369Z,29.19
2018-09-10T11:38:25.262Z,29.11
2018-09-10T11:39:24.362Z,29.26
2018-09-10T11:40:24.412Z,29.68
2018-09-10T11:41:24.388Z,30.56
2018-09-10T11:42:24.398Z,30.86
2018-09-10T11:43:24.452Z,31.70
2018-09-10T11:44:24.432Z,31.88
2018-09-10T11:45:24.448Z,32.07
2018-09-10T11:46:24.490Z,31.42
2018-09-10T11:47:24.516Z,30.21
2018-09-10T11:48:24.500Z,29.81
2018-09-10T11:49:24.517Z,29.82
2018-09-10T11:50:24.563Z,30.11
2018-09-10T11:51:24.541Z,30.07
2018-09-10T11:52:24.561Z,29.99
2018-09-10T11:53:24.610Z,29.81
2018-09-10T11:54:24.589Z,29.84
2018-09-10T11:55:24.608Z,30.29
2018-09-10T11:56:29.654Z,30.50
2018-09-10T11:57:24.638Z,30.94
2018-09-10T11:58:24.789Z,31.35
2018-09-10T11:59:27.650Z,31.75
2018-09-10T12:00:24.684Z,31.84
2018-09-10T12:01:24.700Z,31.99
2018-09-10T12:02:24.719Z,32.36
2018-09-10T12:03:24.773Z,32.20
2018-09-10T12:04:24.787Z,31.17
2018-09-10T12:05:24.774Z,30.43
2018-09-10T12:06:24.787Z,30.67
2018-09-10T12:07:25.760Z,31.06
2018-09-10T12:08:27.402Z,31.55
2018-09-10T12:09:24.959Z,32.03
2018-09-10T12:10:25.056Z,32.22
2018-09-10T12:11:25.654Z,31.82
2018-09-10T12:12:26.714Z,31.99
2018-09-10T12:13:25.016Z,32.42
2018-09-10T12:14:25.281Z,32.70
2018-09-10T12:15:24.966Z,32.91
2018-09-10T12:16:26.483Z,33.10
2018-09-10T12:17:24.999Z,33.19
2018-09-10T12:18:25.093Z,33.26
2018-09-10T12:19:25.071Z,33.34
2018-09-10T12:20:25.155Z,33.49
2018-09-10T12:21:25.111Z,33.67
2018-09-10T12:22:25.776Z,33.63
2018-09-10T12:23:25.117Z,33.85
2018-09-10T12:24:25.171Z,33.41
2018-09-10T12:25:25.161Z,33.63
2018-09-10T12:26:25.258Z,33.46
2018-09-10T12:27:25.193Z,33.39
2018-09-10T12:28:25.213Z,33.33
2018-09-10T12:29:25.284Z,33.31
2018-09-10T12:30:25.252Z,32.58
2018-09-10T12:31:25.289Z,31.60
2018-09-10T12:32:25.299Z,30.93
2018-09-10T12:33:25.318Z,31.35
2018-09-10T12:34:25.400Z,31.73
2018-09-10T12:36:57.707Z,29.34
2018-09-10T12:37:57.684Z,29.72
2018-09-10T12:38:57.698Z,29.79
2018-09-10T12:40:00.498Z,29.04
2018-09-10T12:40:57.792Z,29.41
2018-09-10T12:41:57.752Z,29.92
2018-09-10T12:42:57.779Z,30.43
2018-09-10T12:43:57.811Z,30.75
2018-09-10T12:44:57.851Z,31.24
2018-09-10T12:45:57.824Z,31.65
2018-09-10T12:46:57.836Z,31.75
2018-09-10T12:47:57.882Z,31.55
2018-09-10T12:48:57.884Z,31.54
2018-09-10T12:49:57.933Z,31.70
2018-09-10T12:50:57.914Z,31.57
2018-09-10T12:51:57.954Z,30.64
2018-09-10T12:52:57.947Z,30.49
2018-09-10T12:53:57.962Z,30.91
2018-09-10T12:54:58.028Z,31.12
2018-09-10T12:55:57.995Z,31.39